Time;durP1;ratioP1;P1;durP2;ratioP2;P2;SDS_P1;SDS_P2;PMS_P1;PMS_P2;Temp;Humidity;BMP_temperature;BMP_pressure;BME280_temperature;BME280_humidity;BME280_pressure;Samples;Min_cycle;Max_cycle;Signal;HPM_P1;HPM_P2
2024/01/16 00:02:00;;;;;;;0.10;0.10;;;1.10;99.90;;;;;;5000584;28;20022;-65
2024/01/16 00:04:26;;;;;;;0.00;0.00;;;1.10;99.90;;;;;;5000482;28;20087;-63
2024/01/16 00:06:52;;;;;;;0.00;0.00;;;1.10;99.90;;;;;;4999194;28;20151;-64
2024/01/16 00:09:18;;;;;;;0.00;0.00;;;1.10;99.90;;;;;;5003105;28;20041;-65
2024/01/16 00:11:44;;;;;;;0.00;0.00;;;1.10;99.90;;;;;;4996179;28;20037;-64
2024/01/16 00:14:09;;;;;;;0.00;0.00;;;1.00;99.90;;;;;;4998489;28;20027;-66
2024/01/16 00:16:45;;;;;;;0.00;0.00;;;1.00;99.90;;;;;;5002266;28;20437;-64
2024/01/16 00:19:14;;;;;;;0.00;0.00;;;1.00;99.90;;;;;;4996268;28;20037;-63
2024/01/16 00:21:46;;;;;;;0.00;0.00;;;0.90;99.90;;;;;;5013710;28;20536;-68
2024/01/16 00:24:11;;;;;;;0.00;0.00;;;0.90;99.90;;;;;;4996757;28;20541;-67
2024/01/16 00:26:37;;;;;;;0.00;0.00;;;0.90;99.90;;;;;;4999727;28;20112;-67
2024/01/16 00:29:03;;;;;;;0.00;0.00;;;0.90;99.90;;;;;;4999019;28;20030;-67
2024/01/16 00:31:28;;;;;;;0.00;0.00;;;0.90;99.90;;;;;;4999272;28;20110;-67
2024/01/16 00:33:54;;;;;;;0.00;0.00;;;0.80;99.90;;;;;;4996918;28;20038;-67
2024/01/16 00:36:20;;;;;;;0.00;0.00;;;0.80;99.90;;;;;;4998625;28;20041;-67
2024/01/16 00:38:46;;;;;;;0.00;0.00;;;0.80;99.90;;;;;;4997660;28;20022;-67
2024/01/16 00:41:14;;;;;;;0.00;0.00;;;0.80;99.90;;;;;;4993879;28;20657;-67
2024/01/16 00:43:41;;;;;;;0.00;0.00;;;0.80;99.90;;;;;;4997239;28;20021;-67
2024/01/16 00:46:07;;;;;;;;;;;0.80;99.90;;;;;;4997826;28;20362;-67
2024/01/16 00:48:32;;;;;;;0.00;0.00;;;0.80;99.90;;;;;;4999562;28;19916;-67
2024/01/16 00:50:58;;;;;;;0.00;0.00;;;0.70;99.90;;;;;;4993769;28;20034;-67
2024/01/16 00:53:24;;;;;;;0.00;0.00;;;0.70;99.90;;;;;;5012174;28;20037;-67
2024/01/16 00:55:50;;;;;;;0.00;0.00;;;0.70;99.90;;;;;;4995616;28;20018;-67
2024/01/16 00:58:15;;;;;;;0.00;0.00;;;0.80;99.90;;;;;;4995391;28;20493;-67
2024/01/16 01:00:41;;;;;;;0.00;0.00;;;0.70;99.90;;;;;;4996270;28;20045;-67
2024/01/16 01:03:07;;;;;;;0.00;0.00;;;0.70;99.90;;;;;;4996675;28;20033;-67
2024/01/16 01:05:32;;;;;;;0.00;0.00;;;0.70;99.90;;;;;;4993224;28;20065;-67
2024/01/16 01:07:58;;;;;;;0.00;0.00;;;0.80;99.90;;;;;;5025290;28;20064;-66
2024/01/16 01:10:24;;;;;;;0.00;0.00;;;0.80;99.90;;;;;;5012499;28;20022;-67
2024/01/16 01:12:52;;;;;;;0.00;0.00;;;0.70;99.90;;;;;;4995841;28;20025;-67
2024/01/16 01:15:18;;;;;;;0.00;0.00;;;0.70;99.90;;;;;;4997051;28;20057;-67
2024/01/16 01:17:43;;;;;;;0.00;0.00;;;0.80;99.90;;;;;;4997505;28;20014;-67
2024/01/16 01:20:12;;;;;;;0.00;0.00;;;0.70;99.90;;;;;;4997513;28;20026;-68
2024/01/16 01:22:37;;;;;;;0.00;0.00;;;0.80;99.90;;;;;;5000687;28;20536;-67
2024/01/16 01:25:03;;;;;;;0.00;0.00;;;0.80;99.90;;;;;;4996727;28;20037;-67
2024/01/16 01:27:29;;;;;;;0.00;0.00;;;0.80;99.90;;;;;;4994940;28;20045;-67
2024/01/16 01:29:55;;;;;;;0.00;0.00;;;0.70;99.90;;;;;;4996144;28;20378;-68
2024/01/16 01:32:21;;;;;;;0.00;0.00;;;0.70;99.90;;;;;;5019100;28;20057;-67
2024/01/16 01:34:47;;;;;;;0.00;0.00;;;0.70;99.90;;;;;;5000668;28;20109;-67
2024/01/16 01:37:14;;;;;;;0.00;0.00;;;0.70;99.90;;;;;;4994157;28;20759;-67
2024/01/16 01:39:39;;;;;;;0.00;0.00;;;0.70;99.90;;;;;;4996546;28;20453;-67
2024/01/16 01:42:05;;;;;;;0.00;0.00;;;0.70;99.90;;;;;;5011260;28;20028;-67
2024/01/16 01:44:31;;;;;;;0.00;0.00;;;0.70;99.90;;;;;;4997078;28;20454;-67
2024/01/16 01:46:57;;;;;;;0.00;0.00;;;0.70;99.90;;;;;;4996874;28;20152;-67
2024/01/16 01:49:24;;;;;;;0.00;0.00;;;0.70;99.90;;;;;;5007271;28;20099;-67
2024/01/16 01:51:49;;;;;;;0.00;0.00;;;0.70;99.90;;;;;;4996237;28;20455;-67
2024/01/16 01:54:17;;;;;;;0.00;0.00;;;0.70;99.90;;;;;;4994574;28;20103;-67
2024/01/16 01:56:44;;;;;;;0.00;0.00;;;0.70;99.90;;;;;;4992639;28;20046;-66
2024/01/16 01:59:11;;;;;;;0.00;0.00;;;0.70;99.90;;;;;;4996070;28;20061;-67
2024/01/16 02:01:37;;;;;;;0.00;0.00;;;0.70;99.90;;;;;;5027408;28;20037;-67
2024/01/16 02:04:04;;;;;;;0.00;0.00;;;0.70;99.90;;;;;;4997954;28;20030;-68
2024/01/16 02:06:30;;;;;;;0.00;0.00;;;0.70;99.90;;;;;;4998540;28;20375;-67
2024/01/16 02:08:55;;;;;;;0.00;0.00;;;0.70;99.90;;;;;;4993575;28;20029;-67
2024/01/16 02:11:21;;;;;;;0.00;0.00;;;0.70;99.90;;;;;;4997482;28;20381;-68
2024/01/16 02:13:47;;;;;;;0.00;0.00;;;0.70;99.90;;;;;;4996555;28;20037;-67
2024/01/16 02:16:23;;;;;;;0.00;0.00;;;0.70;99.90;;;;;;4997471;28;20032;-67
2024/01/16 02:18:51;;;;;;;0.00;0.00;;;0.60;99.90;;;;;;4996820;28;20080;-68
2024/01/16 02:21:30;;;;;;;0.00;0.00;;;0.60;99.90;;;;;;4993336;28;20125;-68
2024/01/16 02:23:56;;;;;;;0.00;0.00;;;0.60;99.90;;;;;;4995641;28;20409;-67
2024/01/16 02:26:22;;;;;;;0.00;0.00;;;0.60;99.90;;;;;;4996620;28;20080;-68
2024/01/16 02:28:47;;;;;;;0.00;0.00;;;0.60;99.90;;;;;;4996547;28;20030;-68
2024/01/16 02:31:13;;;;;;;0.00;0.00;;;0.60;99.90;;;;;;4995376;28;20033;-67
2024/01/16 02:33:39;;;;;;;0.00;0.00;;;0.60;99.90;;;;;;4996799;28;20057;-67
2024/01/16 02:36:05;;;;;;;0.00;0.00;;;0.60;99.90;;;;;;4996912;28;20418;-67
2024/01/16 02:38:30;;;;;;;0.00;0.00;;;0.60;99.90;;;;;;5010067;28;20041;-68
2024/01/16 02:40:56;;;;;;;0.00;0.00;;;0.50;99.90;;;;;;4996774;28;20735;-67
2024/01/16 02:43:22;;;;;;;0.00;0.00;;;0.60;99.90;;;;;;4996009;28;20029;-67
2024/01/16 02:45:48;;;;;;;0.00;0.00;;;0.60;99.90;;;;;;4999175;28;20080;-67
2024/01/16 02:48:14;;;;;;;0.13;0.13;;;0.60;99.90;;;;;;4996180;28;20034;-67
2024/01/16 02:50:40;;;;;;;0.00;0.00;;;0.50;99.90;;;;;;4989846;28;20382;-67
2024/01/16 02:53:05;;;;;;;0.00;0.00;;;0.50;99.90;;;;;;4995707;28;20037;-67
2024/01/16 02:55:31;;;;;;;0.00;0.00;;;0.40;99.90;;;;;;4997815;28;20036;-68
2024/01/16 02:57:57;;;;;;;0.00;0.00;;;0.40;99.90;;;;;;4997200;28;20069;-67
2024/01/16 03:00:22;;;;;;;0.00;0.00;;;0.40;99.90;;;;;;4995361;28;20022;-67
2024/01/16 03:02:48;;;;;;;0.00;0.00;;;0.40;99.90;;;;;;4998166;28;20018;-67
2024/01/16 03:05:14;;;;;;;0.00;0.00;;;0.40;99.90;;;;;;4994877;28;20639;-67
2024/01/16 03:07:41;;;;;;;0.00;0.00;;;0.40;99.90;;;;;;5001023;28;20105;-68
2024/01/16 03:10:07;;;;;;;0.00;0.00;;;0.40;99.90;;;;;;4999615;28;20022;-68
2024/01/16 03:12:33;;;;;;;0.00;0.00;;;0.40;99.90;;;;;;4999677;28;20105;-67
2024/01/16 03:14:59;;;;;;;0.00;0.00;;;0.40;99.90;;;;;;4996266;28;20133;-67
2024/01/16 03:17:25;;;;;;;0.00;0.00;;;0.40;99.90;;;;;;5002728;28;20696;-68
2024/01/16 03:19:51;;;;;;;0.00;0.00;;;0.40;99.90;;;;;;4996597;28;20036;-68
2024/01/16 03:22:17;;;;;;;0.00;0.00;;;0.40;99.90;;;;;;4998103;28;20053;-68
2024/01/16 03:24:42;;;;;;;0.10;0.10;;;0.40;99.90;;;;;;4995139;28;20036;-68
2024/01/16 03:27:08;;;;;;;0.00;0.00;;;0.50;99.90;;;;;;5014837;28;20022;-67
2024/01/16 03:29:33;;;;;;;0.00;0.00;;;0.50;99.90;;;;;;4994255;28;20041;-67
2024/01/16 03:32:00;;;;;;;0.00;0.00;;;0.50;99.90;;;;;;4997521;28;20034;-67
2024/01/16 03:34:26;;;;;;;0.00;0.00;;;0.50;99.90;;;;;;4994472;28;20060;-67
2024/01/16 03:36:53;;;;;;;0.00;0.00;;;0.50;99.90;;;;;;4997877;28;20029;-67
2024/01/16 03:39:19;;;;;;;0.00;0.00;;;0.40;99.90;;;;;;4998885;28;20105;-68
2024/01/16 03:41:45;;;;;;;0.00;0.00;;;0.40;99.90;;;;;;4995435;28;20179;-68
2024/01/16 03:44:11;;;;;;;0.00;0.00;;;0.40;99.90;;;;;;4998711;28;20029;-68
2024/01/16 03:46:36;;;;;;;0.00;0.00;;;0.30;99.90;;;;;;5017625;28;20033;-67
2024/01/16 03:49:02;;;;;;;0.00;0.00;;;0.30;99.90;;;;;;4999000;28;20053;-68
2024/01/16 03:51:28;;;;;;;0.00;0.00;;;0.30;99.90;;;;;;4994687;28;20036;-64
2024/01/16 03:53:53;;;;;;;0.00;0.00;;;0.20;99.90;;;;;;4998836;28;20034;-64
2024/01/16 03:56:19;;;;;;;0.00;0.00;;;0.30;99.90;;;;;;4998648;28;20504;-63
2024/01/16 03:58:44;;;;;;;0.00;0.00;;;0.30;99.90;;;;;;4994568;28;20022;-64
2024/01/16 04:01:10;;;;;;;0.00;0.00;;;0.30;99.90;;;;;;4999355;28;20014;-63
2024/01/16 04:03:36;;;;;;;0.00;0.00;;;0.20;99.90;;;;;;4998467;28;20045;-63
2024/01/16 04:06:01;;;;;;;0.00;0.00;;;0.30;99.90;;;;;;5001381;28;20113;-64
2024/01/16 04:08:27;;;;;;;0.00;0.00;;;0.30;99.90;;;;;;4998653;28;20041;-65
2024/01/16 04:10:52;;;;;;;0.00;0.00;;;0.30;99.90;;;;;;4998860;28;20030;-66
2024/01/16 04:13:18;;;;;;;0.00;0.00;;;0.20;99.90;;;;;;5001081;28;20026;-63
2024/01/16 04:15:44;;;;;;;0.00;0.00;;;0.20;99.90;;;;;;4998508;28;20032;-65
2024/01/16 04:18:10;;;;;;;0.00;0.00;;;0.20;99.90;;;;;;4997073;28;20040;-63
2024/01/16 04:20:35;;;;;;;0.00;0.00;;;0.20;99.90;;;;;;4993999;28;20017;-63
2024/01/16 04:23:01;;;;;;;0.00;0.00;;;0.20;99.90;;;;;;4997838;28;20482;-62
2024/01/16 04:25:27;;;;;;;0.00;0.00;;;0.20;99.90;;;;;;4998237;28;20029;-65
2024/01/16 04:27:52;;;;;;;0.00;0.00;;;0.20;99.90;;;;;;4996179;28;20022;-65
2024/01/16 04:30:20;;;;;;;0.00;0.00;;;0.20;99.90;;;;;;4999296;28;20095;-64
2024/01/16 04:32:46;;;;;;;0.00;0.00;;;0.20;99.90;;;;;;4998021;28;20022;-63
2024/01/16 04:35:11;;;;;;;0.00;0.00;;;0.30;99.90;;;;;;4998034;28;20148;-63
2024/01/16 04:37:37;;;;;;;0.00;0.00;;;0.30;99.90;;;;;;4998303;28;20249;-63
2024/01/16 04:40:05;;;;;;;0.00;0.00;;;0.20;99.90;;;;;;4993903;28;20042;-64
2024/01/16 04:42:31;;;;;;;0.00;0.00;;;0.20;99.90;;;;;;4997293;28;20021;-65
2024/01/16 04:44:56;;;;;;;0.00;0.00;;;0.20;99.90;;;;;;4998432;28;20037;-64
2024/01/16 04:47:22;;;;;;;0.00;0.00;;;0.20;99.90;;;;;;4998627;28;20030;-64
2024/01/16 04:49:48;;;;;;;0.00;0.00;;;0.30;99.90;;;;;;4998467;28;20105;-64
2024/01/16 04:52:13;;;;;;;0.00;0.00;;;0.30;99.90;;;;;;4993764;28;20041;-64
2024/01/16 04:54:39;;;;;;;0.00;0.00;;;0.30;99.90;;;;;;4997503;28;20053;-62
2024/01/16 04:57:05;;;;;;;0.00;0.00;;;0.30;99.90;;;;;;5013197;28;20109;-64
2024/01/16 04:59:30;;;;;;;0.00;0.00;;;0.30;99.90;;;;;;4998978;28;20030;-65
2024/01/16 05:01:56;;;;;;;0.00;0.00;;;0.30;99.90;;;;;;5003190;28;20037;-66
2024/01/16 05:04:23;;;;;;;0.00;0.00;;;0.30;99.90;;;;;;4998388;28;20018;-64
2024/01/16 05:06:51;;;;;;;0.00;0.00;;;0.30;99.90;;;;;;4995949;28;20033;-64
2024/01/16 05:09:19;;;;;;;0.00;0.00;;;0.30;99.90;;;;;;4993427;28;20068;-65
2024/01/16 05:11:45;;;;;;;0.00;0.00;;;0.30;99.90;;;;;;4997066;28;20369;-64
2024/01/16 05:14:10;;;;;;;0.00;0.00;;;0.20;99.90;;;;;;4996662;28;20030;-65
2024/01/16 05:16:36;;;;;;;0.00;0.00;;;0.20;99.90;;;;;;5001418;28;20109;-63
2024/01/16 05:19:02;;;;;;;0.00;0.00;;;0.20;99.90;;;;;;4993675;28;20022;-63
2024/01/16 05:21:28;;;;;;;0.00;0.00;;;0.30;99.90;;;;;;5001334;28;20026;-61
2024/01/16 05:23:56;;;;;;;0.00;0.00;;;0.30;99.90;;;;;;5000965;28;20119;-64
2024/01/16 05:26:22;;;;;;;0.00;0.00;;;0.40;99.90;;;;;;5009410;28;20048;-64
2024/01/16 05:28:47;;;;;;;0.00;0.00;;;0.40;99.90;;;;;;4996562;28;20040;-63
2024/01/16 05:31:13;;;;;;;0.00;0.00;;;0.40;99.90;;;;;;5013218;28;20481;-63
2024/01/16 05:33:39;;;;;;;0.00;0.00;;;0.40;99.90;;;;;;4994689;28;20033;-64
2024/01/16 05:36:05;;;;;;;0.00;0.00;;;0.50;99.90;;;;;;4997567;28;20026;-64
2024/01/16 05:38:30;;;;;;;0.00;0.00;;;0.50;99.90;;;;;;4996077;28;20489;-63
2024/01/16 05:40:56;;;;;;;0.00;0.00;;;0.50;99.90;;;;;;4995593;28;20022;-66
2024/01/16 05:43:22;;;;;;;0.00;0.00;;;0.50;99.90;;;;;;4995575;28;20053;-64
2024/01/16 05:45:47;;;;;;;0.00;0.00;;;0.50;99.90;;;;;;5001062;28;20045;-64
2024/01/16 05:48:13;;;;;;;0.00;0.00;;;0.50;99.90;;;;;;4997746;28;20032;-65
2024/01/16 05:50:39;;;;;;;0.00;0.00;;;0.50;99.90;;;;;;4994649;28;20045;-64
2024/01/16 05:53:04;;;;;;;0.00;0.00;;;0.40;99.90;;;;;;4996033;28;20030;-64
2024/01/16 05:55:35;;;;;;;0.00;0.00;;;0.40;99.90;;;;;;4994048;28;20034;-64
2024/01/16 05:58:00;;;;;;;0.00;0.00;;;0.40;99.90;;;;;;4996787;28;20036;-65
2024/01/16 06:00:26;;;;;;;0.00;0.00;;;0.50;99.90;;;;;;4996458;28;20026;-66
2024/01/16 06:02:52;;;;;;;0.00;0.00;;;0.50;99.90;;;;;;4998474;28;20089;-63
2024/01/16 06:05:17;;;;;;;0.00;0.00;;;0.50;99.90;;;;;;5013932;28;20032;-64
2024/01/16 06:07:43;;;;;;;0.00;0.00;;;0.50;99.90;;;;;;4993017;28;20033;-64
2024/01/16 06:10:12;;;;;;;0.00;0.00;;;0.50;99.90;;;;;;4996786;28;20018;-69
2024/01/16 06:12:38;;;;;;;0.00;0.00;;;0.50;99.90;;;;;;4996132;28;20101;-66
2024/01/16 06:15:04;;;;;;;0.00;0.00;;;0.60;99.90;;;;;;4996285;28;20121;-67
2024/01/16 06:17:29;;;;;;;0.00;0.00;;;0.50;99.90;;;;;;4993354;28;20049;-67
2024/01/16 06:19:55;;;;;;;0.00;0.00;;;0.50;99.90;;;;;;5000876;28;20042;-67
2024/01/16 06:22:21;;;;;;;0.00;0.00;;;0.50;99.90;;;;;;4993388;28;20029;-66
2024/01/16 06:24:46;;;;;;;0.00;0.00;;;0.50;99.90;;;;;;4997813;28;20034;-67
2024/01/16 06:27:18;;;;;;;0.00;0.00;;;0.50;99.90;;;;;;4997139;28;20092;-65
2024/01/16 06:29:45;;;;;;;0.00;0.00;;;0.50;99.90;;;;;;4996569;28;20024;-65
2024/01/16 06:32:11;;;;;;;0.00;0.00;;;0.50;99.90;;;;;;4995710;28;20041;-65
2024/01/16 06:34:36;;;;;;;0.00;0.00;;;0.50;99.90;;;;;;4992355;28;20469;-64
2024/01/16 06:37:02;;;;;;;0.00;0.00;;;0.50;99.90;;;;;;4995939;28;20037;-64
2024/01/16 06:39:27;;;;;;;0.00;0.00;;;0.50;99.90;;;;;;4997731;28;20026;-64
2024/01/16 06:41:53;;;;;;;0.00;0.00;;;0.50;99.90;;;;;;5000512;28;20025;-64
2024/01/16 06:44:19;;;;;;;0.00;0.00;;;0.50;99.90;;;;;;4994900;28;20018;-65
2024/01/16 06:46:45;;;;;;;0.00;0.00;;;0.50;99.90;;;;;;5000053;28;20478;-65
2024/01/16 06:49:10;;;;;;;0.00;0.00;;;0.70;99.90;;;;;;4997203;28;20029;-65
2024/01/16 06:51:36;;;;;;;0.00;0.00;;;0.90;99.90;;;;;;4999498;28;20037;-65
2024/01/16 06:54:03;;;;;;;0.00;0.00;;;1.20;99.90;;;;;;4997895;28;20273;-65
2024/01/16 06:56:29;;;;;;;;;;;1.70;99.90;;;;;;4999467;28;20041;-65
2024/01/16 06:58:55;;;;;;;0.00;0.00;;;2.20;99.90;;;;;;5001428;28;20302;-65
2024/01/16 07:01:20;;;;;;;0.00;0.00;;;2.80;99.90;;;;;;4998704;28;20033;-65
2024/01/16 07:03:46;;;;;;;0.00;0.00;;;3.30;99.90;;;;;;4996898;28;20022;-65
2024/01/16 07:06:12;;;;;;;0.00;0.00;;;3.80;99.10;;;;;;5002262;28;20041;-64
2024/01/16 07:08:37;;;;;;;0.00;0.00;;;4.10;98.10;;;;;;4994719;28;20029;-64
2024/01/16 07:11:07;;;;;;;0.00;0.00;;;4.70;97.20;;;;;;5000251;28;20061;-65
2024/01/16 07:13:34;;;;;;;0.00;0.00;;;5.20;95.80;;;;;;4996117;28;20026;-65
2024/01/16 07:15:59;;;;;;;0.00;0.00;;;5.60;94.30;;;;;;4999809;28;20053;-64
2024/01/16 07:18:28;;;;;;;0.00;0.00;;;5.90;93.50;;;;;;4999513;28;20125;-64
2024/01/16 07:20:53;;;;;;;0.00;0.00;;;6.50;92.60;;;;;;5010051;28;20068;-62
2024/01/16 07:23:20;;;;;;;0.00;0.00;;;7.00;90.90;;;;;;5001298;28;20026;-63
2024/01/16 07:25:45;;;;;;;0.00;0.00;;;7.30;90.00;;;;;;4999143;28;20536;-63
2024/01/16 07:28:11;;;;;;;0.00;0.00;;;8.10;87.80;;;;;;4999902;28;20030;-62
2024/01/16 07:30:37;;;;;;;0.00;0.00;;;8.80;84.20;;;;;;5014367;28;20025;-63
2024/01/16 07:33:03;;;;;;;0.00;0.00;;;8.90;80.90;;;;;;5000510;28;20099;-64
2024/01/16 07:35:29;;;;;;;0.00;0.00;;;9.30;79.70;;;;;;4997822;28;20022;-64
2024/01/16 07:37:55;;;;;;;0.00;0.00;;;9.90;78.30;;;;;;5001791;28;20087;-64
2024/01/16 07:40:20;;;;;;;0.00;0.00;;;10.30;75.20;;;;;;4999767;28;20092;-62
2024/01/16 07:42:46;;;;;;;0.00;0.00;;;10.50;73.20;;;;;;5000029;28;20034;-60
2024/01/16 07:45:12;;;;;;;0.00;0.00;;;10.30;73.00;;;;;;4996767;28;20069;-60
2024/01/16 07:47:37;;;;;;;0.00;0.00;;;10.20;72.40;;;;;;5000171;28;20030;-61
2024/01/16 07:50:04;;;;;;;0.00;0.00;;;10.00;72.00;;;;;;4998675;28;20113;-63
2024/01/16 07:52:30;;;;;;;0.00;0.00;;;9.50;72.10;;;;;;4997791;28;20032;-63
2024/01/16 07:54:56;;;;;;;0.00;0.00;;;8.80;74.10;;;;;;4999043;28;20025;-62
2024/01/16 07:57:21;;;;;;;0.00;0.00;;;8.10;74.90;;;;;;4996917;28;20109;-62
2024/01/16 07:59:47;;;;;;;0.00;0.00;;;7.40;76.20;;;;;;4997516;28;20034;-63
2024/01/16 08:02:13;;;;;;;0.00;0.00;;;6.90;77.50;;;;;;4998839;28;20068;-63
2024/01/16 08:04:38;;;;;;;0.00;0.00;;;6.40;78.70;;;;;;5004758;28;20095;-62
2024/01/16 08:07:04;;;;;;;0.00;0.00;;;5.80;79.80;;;;;;4995552;28;20026;-63
2024/01/16 08:09:29;;;;;;;0.00;0.00;;;5.30;81.80;;;;;;4998660;28;20080;-64
2024/01/16 08:11:55;;;;;;;0.00;0.00;;;5.10;82.80;;;;;;4996171;28;20029;-62
2024/01/16 08:14:22;;;;;;;0.00;0.00;;;4.90;83.60;;;;;;4997569;28;20082;-62
2024/01/16 08:16:47;;;;;;;0.00;0.00;;;4.90;83.70;;;;;;4995082;28;20153;-63
2024/01/16 08:19:14;;;;;;;0.00;0.00;;;4.80;84.00;;;;;;4999290;28;20105;-63
2024/01/16 08:21:40;;;;;;;;;;;4.90;84.30;;;;;;4994132;28;20424;-63
2024/01/16 08:24:05;;;;;;;0.10;0.10;;;5.10;84.10;;;;;;4996738;28;20000;-62
2024/01/16 08:26:31;;;;;;;0.00;0.00;;;5.50;83.50;;;;;;4996918;28;20571;-66
2024/01/16 08:28:58;;;;;;;0.00;0.00;;;6.70;81.50;;;;;;5003096;28;20493;-64
2024/01/16 08:31:23;;;;;;;;;;;7.90;78.60;;;;;;5024783;28;20084;-63
2024/01/16 08:33:49;;;;;;;0.00;0.00;;;9.10;75.00;;;;;;4998676;28;19909;-63
2024/01/16 08:36:15;;;;;;;0.00;0.00;;;10.30;72.00;;;;;;4998733;28;20076;-64
2024/01/16 08:38:40;;;;;;;0.00;0.00;;;11.10;69.30;;;;;;4994731;28;20065;-62
2024/01/16 08:41:06;;;;;;;0.00;0.00;;;11.70;67.00;;;;;;4997377;28;20311;-65
2024/01/16 08:43:35;;;;;;;0.00;0.00;;;11.70;66.00;;;;;;5013701;28;20083;-65
2024/01/16 08:46:01;;;;;;;0.00;0.00;;;12.40;64.30;;;;;;4998900;28;20040;-66
2024/01/16 08:48:26;;;;;;;0.00;0.00;;;13.00;62.70;;;;;;4997856;28;20022;-66
2024/01/16 08:50:54;;;;;;;0.00;0.00;;;13.00;60.60;;;;;;4998986;28;20540;-66
2024/01/16 08:53:22;;;;;;;0.00;0.00;;;13.10;61.40;;;;;;4994524;28;20010;-66
2024/01/16 08:55:48;;;;;;;0.00;0.00;;;13.60;60.60;;;;;;5001746;28;20026;-66
2024/01/16 08:58:14;;;;;;;0.00;0.00;;;14.20;58.90;;;;;;4995337;28;20084;-66
2024/01/16 09:00:40;;;;;;;0.00;0.00;;;14.70;58.00;;;;;;4997749;28;20395;-65
2024/01/16 09:03:05;;;;;;;0.00;0.00;;;15.60;56.50;;;;;;4996773;28;20018;-65
2024/01/16 09:05:31;;;;;;;0.00;0.00;;;16.10;55.30;;;;;;4998346;28;20033;-66
2024/01/16 09:07:57;;;;;;;0.00;0.00;;;17.00;54.40;;;;;;4996691;28;20107;-66
2024/01/16 09:10:23;;;;;;;;;;;17.20;52.90;;;;;;4994572;28;20265;-65
2024/01/16 09:12:49;;;;;;;0.00;0.00;;;17.50;51.60;;;;;;4996918;28;19917;-65
2024/01/16 09:15:15;;;;;;;0.00;0.00;;;17.90;51.40;;;;;;4993042;28;20537;-65
2024/01/16 09:17:41;;;;;;;0.00;0.00;;;18.10;50.50;;;;;;4997764;28;20105;-66
2024/01/16 09:20:07;;;;;;;0.00;0.00;;;18.80;49.90;;;;;;4992835;28;20842;-66
2024/01/16 09:22:33;;;;;;;0.00;0.00;;;19.10;48.70;;;;;;5000261;28;20198;-66
2024/01/16 09:24:58;;;;;;;0.00;0.00;;;19.50;47.60;;;;;;4996118;28;20045;-65
2024/01/16 09:27:24;;;;;;;0.00;0.00;;;19.40;47.10;;;;;;4993711;28;20096;-65
2024/01/16 09:29:51;;;;;;;0.00;0.00;;;19.60;47.50;;;;;;4996101;28;20069;-66
2024/01/16 09:32:16;;;;;;;0.00;0.00;;;19.60;46.80;;;;;;4996720;28;20021;-66
2024/01/16 09:34:43;;;;;;;0.00;0.00;;;19.80;46.80;;;;;;4995125;28;20071;-66
2024/01/16 09:37:09;;;;;;;0.00;0.00;;;19.70;46.90;;;;;;4997817;28;20033;-65
2024/01/16 09:39:37;;;;;;;1.00;0.47;;;19.80;46.60;;;;;;5012337;28;20038;-66
2024/01/16 09:42:04;;;;;;;0.00;0.00;;;19.50;46.50;;;;;;5018535;28;20413;-66
2024/01/16 09:44:29;;;;;;;;;;;19.90;46.30;;;;;;5000822;28;20520;-66
2024/01/16 09:46:56;;;;;;;0.00;0.00;;;19.70;46.70;;;;;;4997029;28;19945;-65
2024/01/16 09:49:23;;;;;;;;;;;20.00;46.60;;;;;;4999768;28;20040;-63
2024/01/16 09:51:49;;;;;;;0.00;0.00;;;19.50;46.30;;;;;;4996380;28;20012;-61
2024/01/16 09:54:15;;;;;;;0.00;0.00;;;20.20;46.50;;;;;;4997145;28;20120;-61
2024/01/16 09:56:45;;;;;;;0.00;0.00;;;20.30;46.00;;;;;;4997604;28;20034;-60
2024/01/16 09:59:15;;;;;;;0.00;0.00;;;20.50;45.70;;;;;;4994491;28;20384;-59
2024/01/16 10:01:41;;;;;;;0.00;0.00;;;20.40;45.70;;;;;;4996074;28;20545;-60
2024/01/16 10:04:07;;;;;;;0.00;0.00;;;20.20;46.50;;;;;;4996499;28;20033;-61
2024/01/16 10:06:34;;;;;;;0.00;0.00;;;20.30;45.70;;;;;;4994964;28;20026;-65
2024/01/16 10:09:00;;;;;;;0.57;0.32;;;20.50;45.00;;;;;;4995023;28;20277;-63
2024/01/16 10:11:25;;;;;;;0.00;0.00;;;20.00;45.30;;;;;;4996798;28;20417;-64
2024/01/16 10:13:51;;;;;;;0.00;0.00;;;19.60;46.20;;;;;;4993259;28;20707;-63
2024/01/16 10:16:17;;;;;;;0.00;0.00;;;20.00;45.60;;;;;;5001604;28;20395;-63
2024/01/16 10:18:43;;;;;;;0.27;0.27;;;19.80;45.90;;;;;;4997556;28;20032;-63
2024/01/16 10:21:22;;;;;;;0.00;0.00;;;20.40;45.10;;;;;;5002435;28;20075;-63
2024/01/16 10:23:49;;;;;;;0.00;0.00;;;21.20;44.40;;;;;;4998368;28;20034;-63
2024/01/16 10:26:15;;;;;;;0.00;0.00;;;20.90;44.40;;;;;;5001973;28;20026;-63
2024/01/16 10:28:42;;;;;;;0.00;0.00;;;21.10;44.50;;;;;;5002046;28;20060;-63
2024/01/16 10:31:10;;;;;;;0.00;0.00;;;21.00;44.80;;;;;;5015553;28;20034;-63
2024/01/16 10:33:39;;;;;;;0.00;0.00;;;21.20;44.60;;;;;;4996458;28;20033;-63
2024/01/16 10:36:20;;;;;;;0.00;0.00;;;21.10;44.30;;;;;;5001834;28;20029;-63
2024/01/16 10:38:46;;;;;;;0.00;0.00;;;21.10;44.10;;;;;;5000232;28;20029;-64
2024/01/16 10:41:17;;;;;;;0.00;0.00;;;21.60;43.60;;;;;;4998557;28;20435;-64
2024/01/16 10:43:46;;;;;;;0.00;0.00;;;22.00;43.20;;;;;;4999421;28;20566;-63
2024/01/16 10:46:18;;;;;;;0.00;0.00;;;21.20;43.80;;;;;;4999413;28;20075;-63
2024/01/16 10:48:58;;;;;;;0.00;0.00;;;21.90;43.60;;;;;;5001440;28;20152;-64
2024/01/16 10:51:26;;;;;;;0.00;0.00;;;21.50;43.30;;;;;;5000015;28;20152;-63
2024/01/16 10:54:02;;;;;;;0.20;0.15;;;20.50;43.70;;;;;;5000560;28;20064;-64
2024/01/16 10:56:28;;;;;;;0.00;0.00;;;20.10;44.00;;;;;;5014769;28;20034;-60
2024/01/16 10:59:18;;;;;;;0.00;0.00;;;19.00;44.40;;;;;;5013163;28;20032;-62
2024/01/16 11:01:48;;;;;;;0.00;0.00;;;18.40;44.90;;;;;;4995373;28;20026;-64
2024/01/16 11:04:15;;;;;;;0.00;0.00;;;19.10;45.00;;;;;;5003376;28;20091;-63
2024/01/16 11:06:42;;;;;;;0.00;0.00;;;19.80;44.70;;;;;;5003788;28;20018;-63
2024/01/16 11:09:09;;;;;;;0.00;0.00;;;19.30;44.50;;;;;;5001066;28;20034;-62
2024/01/16 11:11:37;;;;;;;0.00;0.00;;;18.70;44.70;;;;;;4998637;28;20096;-63
2024/01/16 11:14:03;;;;;;;0.00;0.00;;;17.40;45.80;;;;;;5013460;28;20034;-65
2024/01/16 11:16:32;;;;;;;0.00;0.00;;;15.10;47.30;;;;;;4997636;28;20029;-62
2024/01/16 11:18:58;;;;;;;0.00;0.00;;;13.30;49.50;;;;;;4999733;28;20113;-63
2024/01/16 11:21:25;;;;;;;0.00;0.00;;;12.30;51.30;;;;;;4994951;28;20050;-62
2024/01/16 11:23:51;;;;;;;0.00;0.00;;;12.00;52.00;;;;;;4998846;28;20571;-63
2024/01/16 11:26:32;;;;;;;0.00;0.00;;;11.90;52.60;;;;;;4999805;28;20061;-63
2024/01/16 11:29:27;;;;;;;0.00;0.00;;;11.70;52.40;;;;;;4995968;28;20508;-64
2024/01/16 11:31:56;;;;;;;0.00;0.00;;;11.60;53.00;;;;;;4999064;28;20049;-62
2024/01/16 11:34:57;;;;;;;0.00;0.00;;;11.60;53.30;;;;;;4996101;28;20097;-63
2024/01/16 11:37:32;;;;;;;0.00;0.00;;;11.20;54.70;;;;;;4953772;28;20542;-61
2024/01/16 11:40:16;;;;;;;0.00;0.00;;;11.20;54.30;;;;;;4994073;28;20057;-62
2024/01/16 11:42:43;;;;;;;0.00;0.00;;;11.10;54.70;;;;;;4996338;28;20030;-62
2024/01/16 11:45:31;;;;;;;0.00;0.00;;;10.90;53.90;;;;;;4995248;28;20496;-62
2024/01/16 11:48:13;;;;;;;0.00;0.00;;;10.90;53.80;;;;;;5013754;28;20038;-64
2024/01/16 11:50:39;;;;;;;0.00;0.00;;;10.70;53.20;;;;;;4999921;28;20057;-61
2024/01/16 11:53:05;;;;;;;0.00;0.00;;;10.40;53.80;;;;;;4996233;28;20022;-64
2024/01/16 11:55:41;;;;;;;0.00;0.00;;;10.30;54.30;;;;;;5004402;28;20018;-63
2024/01/16 11:58:33;;;;;;;0.00;0.00;;;10.10;54.10;;;;;;4999515;28;20018;-62
2024/01/16 12:00:59;;;;;;;0.00;0.00;;;9.20;55.20;;;;;;4996680;28;20385;-60
2024/01/16 12:03:24;;;;;;;0.00;0.00;;;9.10;56.80;;;;;;4998777;28;20026;-61
2024/01/16 12:06:00;;;;;;;0.00;0.00;;;9.10;57.30;;;;;;4996775;28;20489;-61
2024/01/16 12:08:26;;;;;;;0.00;0.00;;;9.20;57.20;;;;;;4996866;28;20507;-61
2024/01/16 12:10:52;;;;;;;0.00;0.00;;;8.70;57.80;;;;;;4994758;28;20030;-63
2024/01/16 12:13:18;;;;;;;0.00;0.00;;;8.30;58.90;;;;;;4998378;28;20042;-63
2024/01/16 12:15:45;;;;;;;0.00;0.00;;;8.30;59.60;;;;;;4997473;28;20029;-64
2024/01/16 12:18:18;;;;;;;0.00;0.00;;;8.40;59.00;;;;;;4997736;28;20040;-63
2024/01/16 12:20:44;;;;;;;0.00;0.00;;;8.30;59.10;;;;;;4996368;28;20029;-63
2024/01/16 12:23:10;;;;;;;0.00;0.00;;;8.20;59.80;;;;;;4997235;28;20026;-63
2024/01/16 12:25:37;;;;;;;0.00;0.00;;;8.00;59.50;;;;;;4999216;28;20076;-64
2024/01/16 12:28:10;;;;;;;0.00;0.00;;;7.60;59.10;;;;;;4999153;28;20057;-64
2024/01/16 12:30:37;;;;;;;0.00;0.00;;;7.40;59.50;;;;;;4998322;28;20025;-66
2024/01/16 12:33:07;;;;;;;0.00;0.00;;;7.30;60.40;;;;;;4998314;28;20032;-64
2024/01/16 12:35:38;;;;;;;0.00;0.00;;;7.20;59.60;;;;;;4998666;28;20068;-64
2024/01/16 12:38:10;;;;;;;0.00;0.00;;;7.10;59.90;;;;;;4997799;28;20026;-64
2024/01/16 12:40:39;;;;;;;0.00;0.00;;;7.00;59.20;;;;;;5000871;28;20026;-64
2024/01/16 12:43:05;;;;;;;0.00;0.00;;;6.80;59.30;;;;;;4999716;28;20029;-64
2024/01/16 12:45:32;;;;;;;0.00;0.00;;;6.70;59.70;;;;;;4998655;28;20114;-64
2024/01/16 12:47:59;;;;;;;0.00;0.00;;;6.50;60.00;;;;;;4994776;28;20443;-65
2024/01/16 12:50:25;;;;;;;;;;;6.30;61.00;;;;;;4995247;28;20087;-64
2024/01/16 12:53:07;;;;;;;0.00;0.00;;;6.20;60.90;;;;;;4996834;28;19905;-65
2024/01/16 12:55:38;;;;;;;0.00;0.00;;;6.20;62.10;;;;;;4995193;28;20065;-64